sensor_id;sensor_type;location;lat;lon;timestamp;P1;durP1;ratioP1;P2;durP2;ratioP2
65717;SDS011;52445;52.466;-1.016;2024-03-29T00:01:47;0.93;;;0.93;;
65717;SDS011;52445;52.466;-1.016;2024-03-29T00:04:13;1.27;;;1.13;;
65717;SDS011;52445;52.466;-1.016;2024-03-29T00:06:39;0.90;;;0.80;;
65717;SDS011;52445;52.466;-1.016;2024-03-29T00:09:05;0.93;;;0.77;;
65717;SDS011;52445;52.466;-1.016;2024-03-29T00:11:31;2.75;;;0.98;;
65717;SDS011;52445;52.466;-1.016;2024-03-29T00:13:57;2.75;;;0.63;;
65717;SDS011;52445;52.466;-1.016;2024-03-29T00:16:23;1.73;;;0.63;;
65717;SDS011;52445;52.466;-1.016;2024-03-29T00:18:51;0.70;;;0.47;;
65717;SDS011;52445;52.466;-1.016;2024-03-29T00:21:17;0.85;;;0.85;;
65717;SDS011;52445;52.466;-1.016;2024-03-29T00:23:43;1.17;;;1.05;;
65717;SDS011;52445;52.466;-1.016;2024-03-29T00:26:10;2.47;;;1.00;;
65717;SDS011;52445;52.466;-1.016;2024-03-29T00:28:36;1.02;;;0.73;;
65717;SDS011;52445;52.466;-1.016;2024-03-29T00:31:03;1.75;;;0.68;;
65717;SDS011;52445;52.466;-1.016;2024-03-29T00:33:29;0.65;;;0.47;;
65717;SDS011;52445;52.466;-1.016;2024-03-29T00:35:55;3.67;;;0.52;;
65717;SDS011;52445;52.466;-1.016;2024-03-29T00:38:21;2.08;;;0.75;;
65717;SDS011;52445;52.466;-1.016;2024-03-29T00:40:47;0.82;;;0.35;;
65717;SDS011;52445;52.466;-1.016;2024-03-29T00:43:13;1.67;;;0.85;;
65717;SDS011;52445;52.466;-1.016;2024-03-29T00:45:39;3.90;;;1.15;;
65717;SDS011;52445;52.466;-1.016;2024-03-29T00:48:05;0.70;;;0.52;;
65717;SDS011;52445;52.466;-1.016;2024-03-29T00:50:31;1.60;;;0.65;;
65717;SDS011;52445;52.466;-1.016;2024-03-29T00:52:57;0.90;;;0.88;;
65717;SDS011;52445;52.466;-1.016;2024-03-29T00:55:23;1.35;;;1.08;;
65717;SDS011;52445;52.466;-1.016;2024-03-29T00:57:49;1.30;;;0.60;;
65717;SDS011;52445;52.466;-1.016;2024-03-29T01:00:15;3.92;;;0.80;;
65717;SDS011;52445;52.466;-1.016;2024-03-29T01:02:40;2.03;;;1.08;;
65717;SDS011;52445;52.466;-1.016;2024-03-29T01:05:06;1.63;;;1.45;;
65717;SDS011;52445;52.466;-1.016;2024-03-29T01:07:33;8.50;;;0.90;;
65717;SDS011;52445;52.466;-1.016;2024-03-29T01:09:59;1.88;;;1.05;;
65717;SDS011;52445;52.466;-1.016;2024-03-29T01:12:25;8.25;;;1.30;;
65717;SDS011;52445;52.466;-1.016;2024-03-29T01:14:51;3.55;;;0.57;;
65717;SDS011;52445;52.466;-1.016;2024-03-29T01:17:17;0.95;;;0.82;;
65717;SDS011;52445;52.466;-1.016;2024-03-29T01:19:43;0.75;;;0.55;;
65717;SDS011;52445;52.466;-1.016;2024-03-29T01:22:09;2.65;;;0.77;;
65717;SDS011;52445;52.466;-1.016;2024-03-29T01:24:35;2.58;;;0.68;;
65717;SDS011;52445;52.466;-1.016;2024-03-29T01:27:00;1.10;;;0.60;;
65717;SDS011;52445;52.466;-1.016;2024-03-29T01:29:26;5.63;;;0.50;;
65717;SDS011;52445;52.466;-1.016;2024-03-29T01:31:52;1.90;;;0.77;;
65717;SDS011;52445;52.466;-1.016;2024-03-29T01:34:18;1.50;;;0.77;;
65717;SDS011;52445;52.466;-1.016;2024-03-29T01:36:44;2.13;;;1.13;;
65717;SDS011;52445;52.466;-1.016;2024-03-29T01:39:10;2.25;;;0.75;;
65717;SDS011;52445;52.466;-1.016;2024-03-29T01:41:39;1.92;;;1.50;;
65717;SDS011;52445;52.466;-1.016;2024-03-29T01:44:05;2.70;;;1.98;;
65717;SDS011;52445;52.466;-1.016;2024-03-29T01:46:30;3.75;;;0.65;;
65717;SDS011;52445;52.466;-1.016;2024-03-29T01:49:02;3.90;;;0.75;;
65717;SDS011;52445;52.466;-1.016;2024-03-29T01:51:28;1.48;;;0.57;;
65717;SDS011;52445;52.466;-1.016;2024-03-29T01:53:54;1.45;;;0.73;;
65717;SDS011;52445;52.466;-1.016;2024-03-29T01:56:21;2.78;;;0.80;;
65717;SDS011;52445;52.466;-1.016;2024-03-29T01:58:48;1.75;;;0.90;;
65717;SDS011;52445;52.466;-1.016;2024-03-29T02:01:16;2.10;;;1.02;;
65717;SDS011;52445;52.466;-1.016;2024-03-29T02:03:42;0.73;;;0.35;;
65717;SDS011;52445;52.466;-1.016;2024-03-29T02:06:08;1.85;;;1.00;;
65717;SDS011;52445;52.466;-1.016;2024-03-29T02:08:35;1.05;;;0.47;;
65717;SDS011;52445;52.466;-1.016;2024-03-29T02:11:02;1.27;;;0.63;;
65717;SDS011;52445;52.466;-1.016;2024-03-29T02:13:29;1.40;;;1.30;;
65717;SDS011;52445;52.466;-1.016;2024-03-29T02:15:55;0.85;;;0.65;;
65717;SDS011;52445;52.466;-1.016;2024-03-29T02:18:20;0.90;;;0.65;;
65717;SDS011;52445;52.466;-1.016;2024-03-29T02:20:46;1.95;;;0.85;;
65717;SDS011;52445;52.466;-1.016;2024-03-29T02:23:13;2.08;;;1.60;;
65717;SDS011;52445;52.466;-1.016;2024-03-29T02:25:45;1.15;;;0.82;;
65717;SDS011;52445;52.466;-1.016;2024-03-29T02:28:11;2.35;;;0.47;;
65717;SDS011;52445;52.466;-1.016;2024-03-29T02:30:38;0.60;;;0.55;;
65717;SDS011;52445;52.466;-1.016;2024-03-29T02:33:03;1.13;;;0.77;;
65717;SDS011;52445;52.466;-1.016;2024-03-29T02:35:29;0.93;;;0.93;;
65717;SDS011;52445;52.466;-1.016;2024-03-29T02:37:56;2.25;;;0.90;;
65717;SDS011;52445;52.466;-1.016;2024-03-29T02:40:21;1.00;;;0.90;;
65717;SDS011;52445;52.466;-1.016;2024-03-29T02:42:48;2.00;;;0.95;;
65717;SDS011;52445;52.466;-1.016;2024-03-29T02:45:15;2.65;;;1.48;;
65717;SDS011;52445;52.466;-1.016;2024-03-29T02:47:41;4.60;;;0.43;;
65717;SDS011;52445;52.466;-1.016;2024-03-29T02:50:08;5.10;;;1.17;;
65717;SDS011;52445;52.466;-1.016;2024-03-29T02:52:35;1.13;;;1.02;;
65717;SDS011;52445;52.466;-1.016;2024-03-29T02:55:00;1.08;;;1.05;;
65717;SDS011;52445;52.466;-1.016;2024-03-29T02:57:26;2.40;;;1.02;;
65717;SDS011;52445;52.466;-1.016;2024-03-29T02:59:52;0.90;;;0.57;;
65717;SDS011;52445;52.466;-1.016;2024-03-29T03:02:17;2.78;;;0.85;;
65717;SDS011;52445;52.466;-1.016;2024-03-29T03:04:43;1.48;;;0.32;;
65717;SDS011;52445;52.466;-1.016;2024-03-29T03:07:09;1.00;;;0.88;;
65717;SDS011;52445;52.466;-1.016;2024-03-29T03:09:54;2.35;;;0.95;;
65717;SDS011;52445;52.466;-1.016;2024-03-29T03:12:40;2.55;;;0.98;;
65717;SDS011;52445;52.466;-1.016;2024-03-29T03:15:05;2.95;;;0.50;;
65717;SDS011;52445;52.466;-1.016;2024-03-29T03:17:31;1.58;;;0.63;;
65717;SDS011;52445;52.466;-1.016;2024-03-29T03:19:57;1.75;;;0.77;;
65717;SDS011;52445;52.466;-1.016;2024-03-29T03:22:24;0.85;;;0.75;;
65717;SDS011;52445;52.466;-1.016;2024-03-29T03:24:50;1.27;;;1.08;;
65717;SDS011;52445;52.466;-1.016;2024-03-29T03:27:15;0.80;;;0.77;;
65717;SDS011;52445;52.466;-1.016;2024-03-29T03:29:41;0.95;;;0.73;;
65717;SDS011;52445;52.466;-1.016;2024-03-29T03:32:06;1.55;;;0.63;;
65717;SDS011;52445;52.466;-1.016;2024-03-29T03:34:32;3.00;;;1.30;;
65717;SDS011;52445;52.466;-1.016;2024-03-29T03:36:59;2.17;;;0.95;;
65717;SDS011;52445;52.466;-1.016;2024-03-29T03:39:25;3.00;;;1.15;;
65717;SDS011;52445;52.466;-1.016;2024-03-29T03:41:50;3.50;;;1.05;;
65717;SDS011;52445;52.466;-1.016;2024-03-29T03:44:16;1.08;;;0.80;;
65717;SDS011;52445;52.466;-1.016;2024-03-29T03:46:42;1.08;;;0.80;;
65717;SDS011;52445;52.466;-1.016;2024-03-29T03:49:07;0.95;;;0.30;;
65717;SDS011;52445;52.466;-1.016;2024-03-29T03:51:33;0.77;;;0.70;;
65717;SDS011;52445;52.466;-1.016;2024-03-29T03:53:59;1.58;;;1.02;;
65717;SDS011;52445;52.466;-1.016;2024-03-29T03:56:24;0.50;;;0.30;;
65717;SDS011;52445;52.466;-1.016;2024-03-29T03:58:50;0.85;;;0.52;;
65717;SDS011;52445;52.466;-1.016;2024-03-29T04:01:16;1.75;;;1.05;;
65717;SDS011;52445;52.466;-1.016;2024-03-29T04:03:41;1.35;;;0.63;;
65717;SDS011;52445;52.466;-1.016;2024-03-29T04:06:07;0.68;;;0.60;;
65717;SDS011;52445;52.466;-1.016;2024-03-29T04:08:33;2.85;;;0.80;;
65717;SDS011;52445;52.466;-1.016;2024-03-29T04:11:06;2.17;;;2.08;;
65717;SDS011;52445;52.466;-1.016;2024-03-29T04:13:31;1.38;;;0.63;;
65717;SDS011;52445;52.466;-1.016;2024-03-29T04:16:01;1.15;;;0.68;;
65717;SDS011;52445;52.466;-1.016;2024-03-29T04:18:29;2.97;;;0.90;;
65717;SDS011;52445;52.466;-1.016;2024-03-29T04:21:02;3.95;;;1.35;;
65717;SDS011;52445;52.466;-1.016;2024-03-29T04:23:29;1.48;;;0.80;;
65717;SDS011;52445;52.466;-1.016;2024-03-29T04:25:56;0.80;;;0.40;;
65717;SDS011;52445;52.466;-1.016;2024-03-29T04:28:23;0.55;;;0.55;;
65717;SDS011;52445;52.466;-1.016;2024-03-29T04:30:50;1.10;;;0.63;;
65717;SDS011;52445;52.466;-1.016;2024-03-29T04:33:29;4.97;;;1.02;;
65717;SDS011;52445;52.466;-1.016;2024-03-29T04:35:56;2.90;;;0.50;;
65717;SDS011;52445;52.466;-1.016;2024-03-29T04:38:22;1.20;;;0.50;;
65717;SDS011;52445;52.466;-1.016;2024-03-29T04:40:49;1.50;;;1.40;;
65717;SDS011;52445;52.466;-1.016;2024-03-29T04:43:16;4.80;;;0.55;;
65717;SDS011;52445;52.466;-1.016;2024-03-29T04:45:43;2.53;;;1.17;;
65717;SDS011;52445;52.466;-1.016;2024-03-29T04:48:09;1.88;;;0.65;;
65717;SDS011;52445;52.466;-1.016;2024-03-29T04:50:35;6.07;;;0.77;;
65717;SDS011;52445;52.466;-1.016;2024-03-29T04:53:01;0.82;;;0.82;;
65717;SDS011;52445;52.466;-1.016;2024-03-29T04:55:27;5.20;;;0.52;;
65717;SDS011;52445;52.466;-1.016;2024-03-29T04:57:53;3.97;;;0.80;;
65717;SDS011;52445;52.466;-1.016;2024-03-29T05:00:18;2.40;;;0.60;;
65717;SDS011;52445;52.466;-1.016;2024-03-29T05:02:44;2.40;;;0.50;;
65717;SDS011;52445;52.466;-1.016;2024-03-29T05:05:10;1.02;;;0.50;;
65717;SDS011;52445;52.466;-1.016;2024-03-29T05:07:36;4.47;;;0.85;;
65717;SDS011;52445;52.466;-1.016;2024-03-29T05:10:01;1.48;;;0.60;;
65717;SDS011;52445;52.466;-1.016;2024-03-29T05:12:32;3.97;;;0.60;;
65717;SDS011;52445;52.466;-1.016;2024-03-29T05:14:57;3.33;;;0.63;;
65717;SDS011;52445;52.466;-1.016;2024-03-29T05:17:23;2.22;;;0.50;;
65717;SDS011;52445;52.466;-1.016;2024-03-29T05:19:52;2.25;;;0.60;;
65717;SDS011;52445;52.466;-1.016;2024-03-29T05:22:19;1.48;;;0.77;;
65717;SDS011;52445;52.466;-1.016;2024-03-29T05:24:44;2.15;;;0.60;;
65717;SDS011;52445;52.466;-1.016;2024-03-29T05:27:11;4.60;;;0.73;;
65717;SDS011;52445;52.466;-1.016;2024-03-29T05:29:37;1.17;;;0.73;;
65717;SDS011;52445;52.466;-1.016;2024-03-29T05:32:04;3.13;;;0.52;;
65717;SDS011;52445;52.466;-1.016;2024-03-29T05:34:33;2.15;;;0.70;;
65717;SDS011;52445;52.466;-1.016;2024-03-29T05:36:59;6.13;;;1.00;;
65717;SDS011;52445;52.466;-1.016;2024-03-29T05:39:25;3.30;;;1.17;;
65717;SDS011;52445;52.466;-1.016;2024-03-29T05:41:50;2.72;;;0.55;;
65717;SDS011;52445;52.466;-1.016;2024-03-29T05:44:16;2.83;;;1.60;;
65717;SDS011;52445;52.466;-1.016;2024-03-29T05:46:42;1.52;;;0.65;;
65717;SDS011;52445;52.466;-1.016;2024-03-29T05:49:08;1.10;;;0.57;;
65717;SDS011;52445;52.466;-1.016;2024-03-29T05:51:34;3.70;;;0.63;;
65717;SDS011;52445;52.466;-1.016;2024-03-29T05:54:00;2.40;;;0.40;;
65717;SDS011;52445;52.466;-1.016;2024-03-29T05:56:25;6.70;;;1.02;;
65717;SDS011;52445;52.466;-1.016;2024-03-29T05:58:51;2.85;;;0.63;;
65717;SDS011;52445;52.466;-1.016;2024-03-29T06:01:17;3.78;;;1.23;;
65717;SDS011;52445;52.466;-1.016;2024-03-29T06:03:42;2.60;;;0.93;;
65717;SDS011;52445;52.466;-1.016;2024-03-29T06:06:08;0.80;;;0.57;;
65717;SDS011;52445;52.466;-1.016;2024-03-29T06:08:42;2.47;;;2.28;;
65717;SDS011;52445;52.466;-1.016;2024-03-29T06:11:08;1.23;;;0.60;;
65717;SDS011;52445;52.466;-1.016;2024-03-29T06:13:34;4.15;;;1.13;;
65717;SDS011;52445;52.466;-1.016;2024-03-29T06:16:21;4.43;;;0.80;;
65717;SDS011;52445;52.466;-1.016;2024-03-29T06:19:07;1.00;;;0.57;;
65717;SDS011;52445;52.466;-1.016;2024-03-29T06:21:33;1.60;;;1.23;;
65717;SDS011;52445;52.466;-1.016;2024-03-29T06:24:05;2.20;;;0.50;;
65717;SDS011;52445;52.466;-1.016;2024-03-29T06:26:31;2.25;;;0.60;;
65717;SDS011;52445;52.466;-1.016;2024-03-29T06:28:57;0.65;;;0.65;;
65717;SDS011;52445;52.466;-1.016;2024-03-29T06:31:22;3.40;;;0.60;;
65717;SDS011;52445;52.466;-1.016;2024-03-29T06:33:48;2.72;;;1.08;;
65717;SDS011;52445;52.466;-1.016;2024-03-29T06:36:14;3.42;;;0.60;;
65717;SDS011;52445;52.466;-1.016;2024-03-29T06:38:39;1.17;;;0.35;;
65717;SDS011;52445;52.466;-1.016;2024-03-29T06:41:05;6.82;;;0.98;;
65717;SDS011;52445;52.466;-1.016;2024-03-29T06:43:31;0.32;;;0.30;;
65717;SDS011;52445;52.466;-1.016;2024-03-29T06:45:56;2.35;;;0.55;;
65717;SDS011;52445;52.466;-1.016;2024-03-29T06:48:23;1.85;;;0.40;;
65717;SDS011;52445;52.466;-1.016;2024-03-29T06:50:49;1.27;;;0.40;;
65717;SDS011;52445;52.466;-1.016;2024-03-29T06:53:15;0.73;;;0.50;;
65717;SDS011;52445;52.466;-1.016;2024-03-29T06:55:41;1.83;;;0.60;;
65717;SDS011;52445;52.466;-1.016;2024-03-29T06:58:06;1.23;;;0.90;;
65717;SDS011;52445;52.466;-1.016;2024-03-29T07:00:32;2.25;;;0.85;;
65717;SDS011;52445;52.466;-1.016;2024-03-29T07:02:58;1.25;;;0.75;;
65717;SDS011;52445;52.466;-1.016;2024-03-29T07:05:24;0.90;;;0.52;;
65717;SDS011;52445;52.466;-1.016;2024-03-29T07:07:49;3.47;;;0.68;;
65717;SDS011;52445;52.466;-1.016;2024-03-29T07:10:15;2.22;;;0.60;;
65717;SDS011;52445;52.466;-1.016;2024-03-29T07:12:41;7.70;;;0.43;;
65717;SDS011;52445;52.466;-1.016;2024-03-29T07:15:06;1.38;;;0.43;;
65717;SDS011;52445;52.466;-1.016;2024-03-29T07:17:32;2.55;;;0.63;;
65717;SDS011;52445;52.466;-1.016;2024-03-29T07:19:58;6.63;;;0.75;;
65717;SDS011;52445;52.466;-1.016;2024-03-29T07:22:23;4.07;;;0.60;;
65717;SDS011;52445;52.466;-1.016;2024-03-29T07:24:49;4.00;;;0.50;;
65717;SDS011;52445;52.466;-1.016;2024-03-29T07:27:14;5.90;;;0.68;;
65717;SDS011;52445;52.466;-1.016;2024-03-29T07:29:43;4.15;;;0.60;;
65717;SDS011;52445;52.466;-1.016;2024-03-29T07:32:09;2.70;;;0.50;;
65717;SDS011;52445;52.466;-1.016;2024-03-29T07:34:35;1.40;;;0.45;;
65717;SDS011;52445;52.466;-1.016;2024-03-29T07:37:01;0.60;;;0.47;;
65717;SDS011;52445;52.466;-1.016;2024-03-29T07:39:27;2.90;;;1.08;;
65717;SDS011;52445;52.466;-1.016;2024-03-29T07:41:52;4.75;;;0.60;;
65717;SDS011;52445;52.466;-1.016;2024-03-29T07:44:18;3.45;;;0.80;;
65717;SDS011;52445;52.466;-1.016;2024-03-29T07:46:43;3.33;;;0.50;;
65717;SDS011;52445;52.466;-1.016;2024-03-29T07:49:12;6.68;;;0.70;;
65717;SDS011;52445;52.466;-1.016;2024-03-29T07:51:38;2.33;;;0.43;;
65717;SDS011;52445;52.466;-1.016;2024-03-29T07:54:04;2.78;;;0.43;;
65717;SDS011;52445;52.466;-1.016;2024-03-29T07:56:30;2.95;;;0.80;;
65717;SDS011;52445;52.466;-1.016;2024-03-29T07:58:56;4.00;;;0.95;;
65717;SDS011;52445;52.466;-1.016;2024-03-29T08:01:22;1.65;;;0.50;;
65717;SDS011;52445;52.466;-1.016;2024-03-29T08:03:50;3.63;;;1.13;;
65717;SDS011;52445;52.466;-1.016;2024-03-29T08:06:17;4.13;;;0.90;;
65717;SDS011;52445;52.466;-1.016;2024-03-29T08:08:44;2.90;;;0.82;;
65717;SDS011;52445;52.466;-1.016;2024-03-29T08:11:10;6.65;;;1.15;;
65717;SDS011;52445;52.466;-1.016;2024-03-29T08:13:37;5.88;;;0.82;;
65717;SDS011;52445;52.466;-1.016;2024-03-29T08:16:04;4.93;;;1.00;;
65717;SDS011;52445;52.466;-1.016;2024-03-29T08:18:31;2.15;;;0.80;;
65717;SDS011;52445;52.466;-1.016;2024-03-29T08:20:57;4.32;;;0.77;;
65717;SDS011;52445;52.466;-1.016;2024-03-29T08:23:24;5.28;;;1.15;;
65717;SDS011;52445;52.466;-1.016;2024-03-29T08:25:51;2.63;;;0.80;;
65717;SDS011;52445;52.466;-1.016;2024-03-29T08:28:17;6.72;;;1.20;;
65717;SDS011;52445;52.466;-1.016;2024-03-29T08:30:44;6.10;;;1.05;;
65717;SDS011;52445;52.466;-1.016;2024-03-29T08:33:10;4.65;;;0.93;;
65717;SDS011;52445;52.466;-1.016;2024-03-29T08:35:36;7.53;;;1.08;;
65717;SDS011;52445;52.466;-1.016;2024-03-29T08:38:02;3.03;;;0.90;;
65717;SDS011;52445;52.466;-1.016;2024-03-29T08:40:28;4.38;;;1.15;;
65717;SDS011;52445;52.466;-1.016;2024-03-29T08:42:56;2.72;;;0.85;;
65717;SDS011;52445;52.466;-1.016;2024-03-29T08:45:22;3.05;;;0.98;;
65717;SDS011;52445;52.466;-1.016;2024-03-29T08:47:48;2.38;;;0.90;;
65717;SDS011;52445;52.466;-1.016;2024-03-29T08:50:14;6.10;;;0.68;;
65717;SDS011;52445;52.466;-1.016;2024-03-29T08:52:40;1.35;;;0.43;;
65717;SDS011;52445;52.466;-1.016;2024-03-29T08:55:06;4.95;;;0.60;;
65717;SDS011;52445;52.466;-1.016;2024-03-29T08:57:32;2.63;;;1.02;;
65717;SDS011;52445;52.466;-1.016;2024-03-29T08:59:58;1.52;;;0.75;;
65717;SDS011;52445;52.466;-1.016;2024-03-29T09:02:24;1.88;;;0.70;;
65717;SDS011;52445;52.466;-1.016;2024-03-29T09:04:50;1.77;;;0.47;;
65717;SDS011;52445;52.466;-1.016;2024-03-29T09:07:15;5.57;;;0.75;;
65717;SDS011;52445;52.466;-1.016;2024-03-29T09:09:41;6.60;;;0.82;;
65717;SDS011;52445;52.466;-1.016;2024-03-29T09:12:07;4.95;;;0.95;;
65717;SDS011;52445;52.466;-1.016;2024-03-29T09:14:33;2.38;;;0.50;;
65717;SDS011;52445;52.466;-1.016;2024-03-29T09:16:59;4.15;;;0.45;;
65717;SDS011;52445;52.466;-1.016;2024-03-29T09:19:25;3.05;;;0.50;;
65717;SDS011;52445;52.466;-1.016;2024-03-29T09:21:50;3.00;;;0.50;;
65717;SDS011;52445;52.466;-1.016;2024-03-29T09:24:16;1.50;;;0.47;;
65717;SDS011;52445;52.466;-1.016;2024-03-29T09:26:43;0.82;;;0.40;;
65717;SDS011;52445;52.466;-1.016;2024-03-29T09:29:09;3.25;;;0.57;;
65717;SDS011;52445;52.466;-1.016;2024-03-29T09:31:35;2.17;;;0.30;;
65717;SDS011;52445;52.466;-1.016;2024-03-29T09:34:01;0.65;;;0.52;;
65717;SDS011;52445;52.466;-1.016;2024-03-29T09:36:26;0.93;;;0.60;;
65717;SDS011;52445;52.466;-1.016;2024-03-29T09:38:52;2.58;;;0.52;;
65717;SDS011;52445;52.466;-1.016;2024-03-29T09:41:18;0.43;;;0.35;;
65717;SDS011;52445;52.466;-1.016;2024-03-29T09:43:45;5.45;;;0.85;;
65717;SDS011;52445;52.466;-1.016;2024-03-29T09:46:13;1.58;;;0.57;;
65717;SDS011;52445;52.466;-1.016;2024-03-29T09:48:40;0.50;;;0.30;;
65717;SDS011;52445;52.466;-1.016;2024-03-29T09:51:07;0.55;;;0.35;;
65717;SDS011;52445;52.466;-1.016;2024-03-29T09:53:34;1.67;;;0.68;;
65717;SDS011;52445;52.466;-1.016;2024-03-29T09:56:02;2.40;;;0.60;;
65717;SDS011;52445;52.466;-1.016;2024-03-29T09:58:30;1.33;;;0.40;;
65717;SDS011;52445;52.466;-1.016;2024-03-29T10:00:56;2.90;;;0.40;;
65717;SDS011;52445;52.466;-1.016;2024-03-29T10:03:23;2.72;;;0.93;;
65717;SDS011;52445;52.466;-1.016;2024-03-29T10:05:55;0.93;;;0.75;;
65717;SDS011;52445;52.466;-1.016;2024-03-29T10:08:23;4.65;;;1.20;;
65717;SDS011;52445;52.466;-1.016;2024-03-29T10:10:50;1.40;;;0.95;;
65717;SDS011;52445;52.466;-1.016;2024-03-29T10:13:17;1.20;;;0.60;;
65717;SDS011;52445;52.466;-1.016;2024-03-29T10:15:42;3.13;;;0.70;;
65717;SDS011;52445;52.466;-1.016;2024-03-29T10:18:12;0.82;;;0.45;;
65717;SDS011;52445;52.466;-1.016;2024-03-29T10:20:38;5.40;;;0.55;;
65717;SDS011;52445;52.466;-1.016;2024-03-29T10:23:03;1.60;;;0.75;;
65717;SDS011;52445;52.466;-1.016;2024-03-29T10:25:31;0.80;;;0.80;;
65717;SDS011;52445;52.466;-1.016;2024-03-29T10:27:58;1.90;;;0.30;;
65717;SDS011;52445;52.466;-1.016;2024-03-29T10:30:24;2.75;;;0.50;;
65717;SDS011;52445;52.466;-1.016;2024-03-29T10:32:51;4.90;;;1.13;;
65717;SDS011;52445;52.466;-1.016;2024-03-29T10:35:16;4.75;;;0.90;;
65717;SDS011;52445;52.466;-1.016;2024-03-29T10:37:42;1.75;;;0.50;;
65717;SDS011;52445;52.466;-1.016;2024-03-29T10:40:09;2.67;;;0.55;;
65717;SDS011;52445;52.466;-1.016;2024-03-29T10:42:37;2.47;;;0.70;;
65717;SDS011;52445;52.466;-1.016;2024-03-29T10:45:05;3.72;;;1.58;;
65717;SDS011;52445;52.466;-1.016;2024-03-29T10:47:32;1.95;;;0.50;;
65717;SDS011;52445;52.466;-1.016;2024-03-29T10:49:58;3.08;;;0.82;;
65717;SDS011;52445;52.466;-1.016;2024-03-29T10:52:25;5.88;;;0.60;;
65717;SDS011;52445;52.466;-1.016;2024-03-29T10:54:51;1.35;;;0.82;;
65717;SDS011;52445;52.466;-1.016;2024-03-29T10:57:22;2.85;;;0.40;;
65717;SDS011;52445;52.466;-1.016;2024-03-29T10:59:54;3.33;;;0.70;;
65717;SDS011;52445;52.466;-1.016;2024-03-29T11:02:39;1.67;;;1.02;;
65717;SDS011;52445;52.466;-1.016;2024-03-29T11:05:16;2.47;;;1.95;;
65717;SDS011;52445;52.466;-1.016;2024-03-29T11:07:43;2.22;;;0.98;;
65717;SDS011;52445;52.466;-1.016;2024-03-29T11:10:11;1.13;;;0.88;;
65717;SDS011;52445;52.466;-1.016;2024-03-29T11:12:47;3.30;;;0.90;;
65717;SDS011;52445;52.466;-1.016;2024-03-29T11:15:34;1.70;;;0.63;;
65717;SDS011;52445;52.466;-1.016;2024-03-29T11:18:03;4.55;;;0.70;;
65717;SDS011;52445;52.466;-1.016;2024-03-29T11:20:30;3.63;;;0.50;;
65717;SDS011;52445;52.466;-1.016;2024-03-29T11:23:04;0.98;;;0.70;;
65717;SDS011;52445;52.466;-1.016;2024-03-29T11:25:39;2.25;;;0.55;;
65717;SDS011;52445;52.466;-1.016;2024-03-29T11:28:25;1.48;;;0.82;;
65717;SDS011;52445;52.466;-1.016;2024-03-29T11:31:02;2.17;;;0.98;;
65717;SDS011;52445;52.466;-1.016;2024-03-29T11:33:31;2.20;;;2.10;;
65717;SDS011;52445;52.466;-1.016;2024-03-29T11:35:59;3.67;;;1.35;;
65717;SDS011;52445;52.466;-1.016;2024-03-29T11:38:31;3.35;;;2.28;;
65717;SDS011;52445;52.466;-1.016;2024-03-29T11:41:07;3.47;;;2.13;;
65717;SDS011;52445;52.466;-1.016;2024-03-29T11:43:36;6.00;;;2.60;;
65717;SDS011;52445;52.466;-1.016;2024-03-29T11:46:05;3.65;;;1.83;;
65717;SDS011;52445;52.466;-1.016;2024-03-29T11:48:31;1.83;;;1.73;;
65717;SDS011;52445;52.466;-1.016;2024-03-29T11:50:58;4.40;;;1.75;;
65717;SDS011;52445;52.466;-1.016;2024-03-29T11:53:24;4.20;;;1.40;;
65717;SDS011;52445;52.466;-1.016;2024-03-29T11:55:50;4.03;;;2.00;;
65717;SDS011;52445;52.466;-1.016;2024-03-29T11:58:20;1.95;;;1.70;;
65717;SDS011;52445;52.466;-1.016;2024-03-29T12:00:47;0.93;;;0.60;;
65717;SDS011;52445;52.466;-1.016;2024-03-29T12:03:14;2.63;;;2.00;;
65717;SDS011;52445;52.466;-1.016;2024-03-29T12:05:42;1.75;;;1.65;;
65717;SDS011;52445;52.466;-1.016;2024-03-29T12:08:08;2.17;;;2.00;;
65717;SDS011;52445;52.466;-1.016;2024-03-29T12:10:35;1.67;;;1.58;;
65717;SDS011;52445;52.466;-1.016;2024-03-29T12:13:02;4.38;;;2.42;;
65717;SDS011;52445;52.466;-1.016;2024-03-29T12:15:30;1.33;;;1.23;;
65717;SDS011;52445;52.466;-1.016;2024-03-29T12:18:00;2.22;;;1.45;;
65717;SDS011;52445;52.466;-1.016;2024-03-29T12:20:29;2.53;;;1.63;;
65717;SDS011;52445;52.466;-1.016;2024-03-29T12:23:11;2.05;;;1.92;;
65717;SDS011;52445;52.466;-1.016;2024-03-29T12:25:39;2.03;;;1.92;;
65717;SDS011;52445;52.466;-1.016;2024-03-29T12:28:05;1.73;;;1.63;;
65717;SDS011;52445;52.466;-1.016;2024-03-29T12:30:32;2.03;;;1.50;;
65717;SDS011;52445;52.466;-1.016;2024-03-29T12:33:06;3.70;;;1.92;;
65717;SDS011;52445;52.466;-1.016;2024-03-29T12:35:35;3.30;;;2.03;;
65717;SDS011;52445;52.466;-1.016;2024-03-29T12:38:02;1.60;;;1.50;;
65717;SDS011;52445;52.466;-1.016;2024-03-29T12:40:29;4.00;;;1.88;;
65717;SDS011;52445;52.466;-1.016;2024-03-29T12:43:02;6.03;;;2.03;;
65717;SDS011;52445;52.466;-1.016;2024-03-29T12:45:31;1.95;;;1.85;;
65717;SDS011;52445;52.466;-1.016;2024-03-29T12:47:57;2.67;;;2.47;;
65717;SDS011;52445;52.466;-1.016;2024-03-29T12:50:25;2.97;;;2.40;;
65717;SDS011;52445;52.466;-1.016;2024-03-29T12:52:53;3.80;;;1.77;;
65717;SDS011;52445;52.466;-1.016;2024-03-29T12:55:22;1.45;;;1.33;;
65717;SDS011;52445;52.466;-1.016;2024-03-29T12:57:49;2.45;;;0.77;;
65717;SDS011;52445;52.466;-1.016;2024-03-29T13:00:19;1.55;;;1.45;;
65717;SDS011;52445;52.466;-1.016;2024-03-29T13:02:45;5.13;;;1.60;;
65717;SDS011;52445;52.466;-1.016;2024-03-29T13:05:11;2.17;;;1.33;;
65717;SDS011;52445;52.466;-1.016;2024-03-29T13:07:36;2.00;;;1.90;;
65717;SDS011;52445;52.466;-1.016;2024-03-29T13:10:02;2.33;;;2.03;;
65717;SDS011;52445;52.466;-1.016;2024-03-29T13:12:36;1.90;;;1.77;;
65717;SDS011;52445;52.466;-1.016;2024-03-29T13:15:14;1.88;;;1.65;;
65717;SDS011;52445;52.466;-1.016;2024-03-29T13:17:44;2.38;;;1.23;;
65717;SDS011;52445;52.466;-1.016;2024-03-29T13:20:11;7.88;;;1.85;;
65717;SDS011;52445;52.466;-1.016;2024-03-29T13:22:38;2.30;;;0.60;;
65717;SDS011;52445;52.466;-1.016;2024-03-29T13:25:04;3.30;;;1.52;;
65717;SDS011;52445;52.466;-1.016;2024-03-29T13:27:31;4.30;;;2.00;;
65717;SDS011;52445;52.466;-1.016;2024-03-29T13:29:57;4.28;;;2.03;;
65717;SDS011;52445;52.466;-1.016;2024-03-29T13:32:22;1.98;;;1.88;;
65717;SDS011;52445;52.466;-1.016;2024-03-29T13:34:48;2.67;;;2.00;;
65717;SDS011;52445;52.466;-1.016;2024-03-29T13:37:14;4.65;;;2.30;;
65717;SDS011;52445;52.466;-1.016;2024-03-29T13:39:39;4.60;;;2.17;;
65717;SDS011;52445;52.466;-1.016;2024-03-29T13:42:05;2.70;;;1.40;;
65717;SDS011;52445;52.466;-1.016;2024-03-29T13:44:31;1.75;;;1.65;;
65717;SDS011;52445;52.466;-1.016;2024-03-29T13:46:59;2.13;;;1.70;;
65717;SDS011;52445;52.466;-1.016;2024-03-29T13:49:28;3.90;;;1.65;;
65717;SDS011;52445;52.466;-1.016;2024-03-29T13:51:55;4.97;;;3.05;;
65717;SDS011;52445;52.466;-1.016;2024-03-29T13:54:22;1.90;;;1.58;;
65717;SDS011;52445;52.466;-1.016;2024-03-29T13:56:49;5.13;;;2.47;;
65717;SDS011;52445;52.466;-1.016;2024-03-29T13:59:15;2.47;;;2.10;;
65717;SDS011;52445;52.466;-1.016;2024-03-29T14:01:41;1.45;;;0.63;;
65717;SDS011;52445;52.466;-1.016;2024-03-29T14:04:07;2.03;;;1.48;;
65717;SDS011;52445;52.466;-1.016;2024-03-29T14:06:32;2.70;;;1.88;;
65717;SDS011;52445;52.466;-1.016;2024-03-29T14:08:58;1.92;;;1.75;;
65717;SDS011;52445;52.466;-1.016;2024-03-29T14:11:24;1.60;;;1.50;;
65717;SDS011;52445;52.466;-1.016;2024-03-29T14:13:49;1.52;;;1.35;;
65717;SDS011;52445;52.466;-1.016;2024-03-29T14:16:21;2.55;;;1.65;;
65717;SDS011;52445;52.466;-1.016;2024-03-29T14:18:48;2.45;;;2.25;;
65717;SDS011;52445;52.466;-1.016;2024-03-29T14:21:14;1.83;;;1.60;;
65717;SDS011;52445;52.466;-1.016;2024-03-29T14:23:40;4.05;;;1.42;;
65717;SDS011;52445;52.466;-1.016;2024-03-29T14:26:06;1.75;;;0.98;;
65717;SDS011;52445;52.466;-1.016;2024-03-29T14:28:31;2.55;;;1.77;;
65717;SDS011;52445;52.466;-1.016;2024-03-29T14:30:57;1.05;;;1.02;;
65717;SDS011;52445;52.466;-1.016;2024-03-29T14:33:23;3.65;;;1.75;;